Time;durP1;ratioP1;P1;durP2;ratioP2;P2;SDS_P1;SDS_P2;PMS_P1;PMS_P2;Temp;Humidity;BMP_temperature;BMP_pressure;BME280_temperature;BME280_humidity;BME280_pressure;Samples;Min_cycle;Max_cycle;Signal;HPM_P1;HPM_P2
2022/04/16 00:00:13;;;;;;;3.53;3.22;;;11.50;98.20;;;;;;5115918;28;20221;-68
2022/04/16 00:02:40;;;;;;;4.00;3.70;;;11.50;98.90;;;;;;5115879;28;20268;-68
2022/04/16 00:05:09;;;;;;;4.13;3.80;;;11.40;98.90;;;;;;5115747;28;20297;-68
2022/04/16 00:07:38;;;;;;;3.42;3.13;;;11.30;98.70;;;;;;5115673;28;20210;-68
2022/04/16 00:10:06;;;;;;;3.45;3.15;;;11.30;99.00;;;;;;5116171;27;20204;-68
2022/04/16 00:12:33;;;;;;;3.40;3.10;;;11.40;99.40;;;;;;5115417;28;20223;-68
2022/04/16 00:15:00;;;;;;;4.13;3.30;;;11.40;99.10;;;;;;5115778;28;20563;-68
2022/04/16 00:17:27;;;;;;;3.33;3.10;;;11.40;99.10;;;;;;5115678;28;20241;-67
2022/04/16 00:19:54;;;;;;;3.58;3.28;;;11.30;99.00;;;;;;5115506;28;20256;-68
2022/04/16 00:22:23;;;;;;;3.45;3.15;;;11.20;99.20;;;;;;5115540;28;20221;-68
2022/04/16 00:24:51;;;;;;;3.03;2.72;;;11.20;99.30;;;;;;5115326;28;20212;-68
2022/04/16 00:27:18;;;;;;;3.17;2.88;;;11.30;99.30;;;;;;5115440;28;20220;-68
2022/04/16 00:29:46;;;;;;;3.50;3.20;;;11.40;98.90;;;;;;5115044;28;20205;-67
2022/04/16 00:32:12;;;;;;;3.13;2.90;;;11.40;98.40;;;;;;5115051;28;20699;-68
2022/04/16 00:34:39;;;;;;;2.70;2.50;;;11.60;97.60;;;;;;5115146;28;20292;-67
2022/04/16 00:37:06;;;;;;;2.95;2.75;;;11.70;97.60;;;;;;5115259;28;20205;-68
2022/04/16 00:39:33;;;;;;;2.95;2.75;;;11.80;96.90;;;;;;5114860;28;20267;-68
2022/04/16 00:42:01;;;;;;;2.88;2.50;;;12.00;96.60;;;;;;5115100;28;20221;-68
2022/04/16 00:44:28;;;;;;;3.20;2.90;;;12.10;96.40;;;;;;5114970;28;20204;-68
2022/04/16 00:46:55;;;;;;;3.15;2.95;;;12.00;96.20;;;;;;5115102;27;20205;-68
2022/04/16 00:49:22;;;;;;;3.70;3.40;;;11.90;96.60;;;;;;5115060;28;20205;-68
2022/04/16 00:51:50;;;;;;;3.17;2.97;;;11.80;96.30;;;;;;5114785;28;20230;-68
2022/04/16 00:54:18;;;;;;;3.33;3.05;;;11.60;96.90;;;;;;5114870;28;20713;-68
2022/04/16 00:56:47;;;;;;;3.40;3.10;;;11.40;97.60;;;;;;5114856;28;20201;-68
2022/04/16 00:59:15;;;;;;;3.35;2.85;;;11.40;97.80;;;;;;5113872;28;20226;-68
2022/04/16 01:01:41;;;;;;;3.15;2.95;;;11.50;97.50;;;;;;5114555;28;20699;-68
2022/04/16 01:04:09;;;;;;;3.45;3.15;;;11.70;97.10;;;;;;5114476;28;20208;-67
2022/04/16 01:06:37;;;;;;;3.55;3.25;;;11.70;97.00;;;;;;5114701;28;20201;-68
2022/04/16 01:09:04;;;;;;;4.32;3.00;;;11.60;96.90;;;;;;5114847;28;20690;-68
2022/04/16 01:11:32;;;;;;;4.10;3.33;;;11.50;96.90;;;;;;5114569;28;20225;-67
2022/04/16 01:13:59;;;;;;;2.90;2.70;;;11.60;97.10;;;;;;5114434;28;20201;-68
2022/04/16 01:16:29;;;;;;;3.33;3.03;;;11.60;97.00;;;;;;5114565;28;20197;-68
2022/04/16 01:18:56;;;;;;;3.00;2.80;;;11.80;97.10;;;;;;5114331;28;20221;-68
2022/04/16 01:21:23;;;;;;;3.45;3.15;;;11.90;96.80;;;;;;5114335;28;20304;-68
2022/04/16 01:23:52;;;;;;;3.30;2.88;;;12.00;96.70;;;;;;5114000;28;20208;-68
2022/04/16 01:26:20;;;;;;;2.90;2.70;;;12.10;96.40;;;;;;5114402;28;20201;-68
2022/04/16 01:28:47;;;;;;;3.40;3.20;;;12.10;96.00;;;;;;5114217;28;20249;-68
2022/04/16 01:31:14;;;;;;;2.80;2.60;;;12.20;95.80;;;;;;5114183;28;20228;-68
2022/04/16 01:33:41;;;;;;;3.05;2.75;;;12.30;95.60;;;;;;5114196;28;20567;-67
2022/04/16 01:36:08;;;;;;;2.90;2.70;;;12.30;95.50;;;;;;5114418;28;20663;-68
2022/04/16 01:38:35;;;;;;;3.17;2.88;;;12.20;95.50;;;;;;5114184;28;20197;-67
2022/04/16 01:41:04;;;;;;;3.00;2.70;;;12.10;95.70;;;;;;5114104;28;20204;-68
2022/04/16 01:43:31;;;;;;;3.30;3.00;;;12.00;96.20;;;;;;5113971;28;20201;-67
2022/04/16 01:45:59;;;;;;;3.30;3.00;;;11.90;96.20;;;;;;5114181;28;20211;-67
2022/04/16 01:48:27;;;;;;;3.40;3.10;;;11.80;96.40;;;;;;5114093;27;20559;-67
2022/04/16 01:50:55;;;;;;;3.03;2.83;;;11.70;96.70;;;;;;5114063;28;20197;-68
2022/04/16 01:53:22;;;;;;;3.78;3.45;;;11.70;97.10;;;;;;5113658;28;20206;-68
2022/04/16 01:55:49;;;;;;;3.45;3.15;;;11.60;97.20;;;;;;5114142;28;20201;-67
2022/04/16 01:58:20;;;;;;;3.10;2.90;;;11.50;97.50;;;;;;5113995;28;20203;-68
2022/04/16 02:00:47;;;;;;;3.10;2.90;;;11.50;97.70;;;;;;5113885;28;20229;-68
2022/04/16 02:03:14;;;;;;;3.55;3.25;;;11.40;97.70;;;;;;5114540;28;20197;-68
2022/04/16 02:05:41;;;;;;;3.83;3.53;;;11.30;97.90;;;;;;5113724;28;20659;-67
2022/04/16 02:08:08;;;;;;;3.30;3.10;;;11.10;98.20;;;;;;5113749;28;20209;-67
2022/04/16 02:10:35;;;;;;;3.55;3.25;;;11.00;98.50;;;;;;5114422;28;20197;-67
2022/04/16 02:13:02;;;;;;;4.13;3.20;;;10.90;98.80;;;;;;5117887;28;20307;-68
2022/04/16 02:15:31;;;;;;;3.55;3.25;;;10.80;99.20;;;;;;5117961;28;20211;-67
2022/04/16 02:17:58;;;;;;;3.45;3.15;;;10.80;99.30;;;;;;5117921;28;20205;-68
2022/04/16 02:20:24;;;;;;;3.78;3.47;;;10.80;99.70;;;;;;5117905;28;20225;-67
2022/04/16 02:22:53;;;;;;;3.53;3.22;;;10.70;99.90;;;;;;5117889;28;20225;-67
2022/04/16 02:25:20;;;;;;;3.47;3.17;;;10.70;99.90;;;;;;5117720;28;20201;-68
2022/04/16 02:27:47;;;;;;;4.43;4.05;;;10.70;99.90;;;;;;5117722;28;20686;-67
2022/04/16 02:30:15;;;;;;;3.35;3.05;;;10.80;99.90;;;;;;5117601;28;20227;-68
2022/04/16 02:32:45;;;;;;;3.40;3.10;;;10.70;99.60;;;;;;5117378;28;20226;-67
2022/04/16 02:35:13;;;;;;;5.18;3.40;;;10.70;99.90;;;;;;5117494;28;20202;-67
2022/04/16 02:37:40;;;;;;;3.83;3.42;;;10.70;99.90;;;;;;5117652;28;20212;-68
2022/04/16 02:40:08;;;;;;;3.65;3.35;;;10.70;99.90;;;;;;5117499;28;20575;-67
2022/04/16 02:42:36;;;;;;;3.72;3.42;;;10.60;99.90;;;;;;5117436;27;20228;-67
2022/04/16 02:47:49;;;;;;;3.90;3.60;;;10.50;99.90;;;;;;5117519;28;20200;-67
2022/04/16 02:50:16;;;;;;;4.28;3.80;;;10.50;99.90;;;;;;5117181;28;20236;-67
2022/04/16 02:52:44;;;;;;;3.80;3.50;;;10.50;99.90;;;;;;5117321;27;20564;-67
2022/04/16 02:55:11;;;;;;;6.28;3.65;;;10.50;99.90;;;;;;5117077;28;20205;-68
2022/04/16 02:57:38;;;;;;;4.20;3.80;;;10.40;99.90;;;;;;5117192;28;20207;-67
2022/04/16 03:00:06;;;;;;;4.43;3.90;;;10.40;99.90;;;;;;5117123;28;20222;-67
2022/04/16 03:02:33;;;;;;;3.92;3.63;;;10.40;99.90;;;;;;5117096;28;20308;-67
2022/04/16 03:05:03;;;;;;;4.85;4.38;;;10.40;99.90;;;;;;5116913;28;20201;-67
2022/04/16 03:07:30;;;;;;;4.13;3.78;;;10.40;99.90;;;;;;5117007;28;20289;-67
2022/04/16 03:09:57;;;;;;;4.15;3.80;;;10.30;99.90;;;;;;5116902;28;20198;-67
2022/04/16 03:12:23;;;;;;;4.70;3.90;;;10.30;99.90;;;;;;5116914;28;20307;-67
2022/04/16 03:17:35;;;;;;;5.00;4.30;;;10.20;99.90;;;;;;5116874;28;20227;-67
2022/04/16 03:20:06;;;;;;;3.92;3.63;;;10.10;99.90;;;;;;5116637;28;20221;-67
2022/04/16 03:22:33;;;;;;;4.35;3.95;;;10.10;99.90;;;;;;5115609;28;20233;-67
2022/04/16 03:25:00;;;;;;;5.05;4.22;;;10.10;99.90;;;;;;5116317;28;20292;-67
2022/04/16 03:27:27;;;;;;;4.38;3.97;;;10.10;99.90;;;;;;5116623;28;20292;-67
2022/04/16 03:29:54;;;;;;;4.57;4.18;;;10.10;99.90;;;;;;5116474;28;20291;-67
2022/04/16 03:32:20;;;;;;;4.57;4.10;;;10.10;99.90;;;;;;5116472;28;20229;-67
2022/04/16 03:34:47;;;;;;;4.63;4.22;;;10.10;99.90;;;;;;5116324;28;20228;-67
2022/04/16 03:37:15;;;;;;;4.30;3.92;;;10.10;99.90;;;;;;5116484;28;20201;-67
2022/04/16 03:39:43;;;;;;;4.15;3.83;;;10.10;99.90;;;;;;5116139;28;20701;-67
2022/04/16 03:42:11;;;;;;;5.75;4.65;;;10.10;99.90;;;;;;5116350;28;20636;-67
2022/04/16 03:44:38;;;;;;;4.93;4.43;;;10.10;99.90;;;;;;5116140;28;20288;-67
2022/04/16 03:47:05;;;;;;;4.25;3.72;;;10.10;99.90;;;;;;5116183;28;20686;-67
2022/04/16 03:49:32;;;;;;;4.57;4.18;;;10.10;99.90;;;;;;5116123;28;20194;-67
2022/04/16 03:51:59;;;;;;;4.32;3.92;;;10.10;99.90;;;;;;5115853;28;20390;-68
2022/04/16 04:00:01;;;;;;;4.80;4.40;;;10.10;99.90;;;;;;5115984;28;20273;-67
2022/04/16 04:02:29;;;;;;;4.43;4.03;;;10.00;99.90;;;;;;5115670;28;20721;-67
2022/04/16 04:04:56;;;;;;;4.95;4.00;;;9.90;99.90;;;;;;5115664;27;20209;-67
2022/04/16 04:07:23;;;;;;;4.38;3.97;;;10.00;99.90;;;;;;5115563;28;20736;-67
2022/04/16 04:09:51;;;;;;;4.18;3.88;;;10.00;99.90;;;;;;5115812;28;20221;-67
2022/04/16 04:12:18;;;;;;;4.35;3.95;;;9.90;99.90;;;;;;5115648;28;20229;-67
2022/04/16 04:14:46;;;;;;;4.75;4.35;;;9.90;99.90;;;;;;5115552;28;20201;-67
2022/04/16 04:17:14;;;;;;;4.60;4.20;;;10.00;99.90;;;;;;5115465;28;20215;-67
2022/04/16 04:19:43;;;;;;;5.25;4.75;;;9.90;99.90;;;;;;5115388;28;20316;-67
2022/04/16 04:22:11;;;;;;;4.57;4.18;;;9.90;99.90;;;;;;5115309;28;20595;-67
2022/04/16 04:24:39;;;;;;;4.75;4.32;;;9.80;99.90;;;;;;5115420;28;20208;-67
2022/04/16 04:27:08;;;;;;;5.18;4.68;;;9.80;99.90;;;;;;5115180;28;20197;-67
2022/04/16 04:29:37;;;;;;;5.00;4.50;;;9.90;99.90;;;;;;5115206;28;20602;-67
2022/04/16 04:32:04;;;;;;;4.70;4.30;;;9.80;99.90;;;;;;5115417;28;20228;-67
2022/04/16 04:34:31;;;;;;;5.20;4.38;;;9.80;99.90;;;;;;5114961;28;20237;-67
2022/04/16 04:36:58;;;;;;;4.97;4.47;;;9.80;99.90;;;;;;5115377;28;20544;-67
2022/04/16 04:39:24;;;;;;;4.70;4.30;;;9.80;99.90;;;;;;5115268;28;20207;-67
2022/04/16 04:41:52;;;;;;;5.68;4.80;;;9.70;99.90;;;;;;5114905;28;20259;-67
2022/04/16 04:44:21;;;;;;;5.00;4.40;;;9.70;99.90;;;;;;5115014;28;20579;-67
2022/04/16 04:46:47;;;;;;;5.28;4.55;;;9.70;99.90;;;;;;5115136;28;20201;-67
2022/04/16 04:49:14;;;;;;;5.38;4.65;;;9.70;99.90;;;;;;5115033;28;20204;-67
2022/04/16 04:51:42;;;;;;;4.85;4.45;;;9.80;99.90;;;;;;5114914;28;20243;-67
2022/04/16 04:54:09;;;;;;;8.02;4.60;;;9.80;99.90;;;;;;5114795;28;20201;-67
2022/04/16 04:56:36;;;;;;;5.40;4.90;;;9.80;99.90;;;;;;5114945;28;20197;-67
2022/04/16 04:59:03;;;;;;;6.10;4.80;;;9.90;99.90;;;;;;5114899;28;20571;-67
2022/04/16 05:01:31;;;;;;;5.40;4.90;;;9.90;99.90;;;;;;5114712;28;20236;-67
2022/04/16 05:03:58;;;;;;;5.03;4.63;;;10.00;99.90;;;;;;5114432;28;20233;-67
2022/04/16 05:06:25;;;;;;;5.30;4.80;;;10.00;99.90;;;;;;5114579;28;20285;-68
2022/04/16 05:08:52;;;;;;;5.00;4.60;;;10.00;99.90;;;;;;5114663;28;20205;-67
2022/04/16 05:11:20;;;;;;;5.47;4.97;;;10.10;99.90;;;;;;5114609;28;20313;-67
2022/04/16 05:13:47;;;;;;;5.13;4.68;;;10.10;99.90;;;;;;5114390;28;20574;-68
2022/04/16 05:16:14;;;;;;;6.20;5.10;;;10.00;99.90;;;;;;5114552;28;20203;-67
2022/04/16 05:18:43;;;;;;;5.43;4.93;;;10.10;99.90;;;;;;5114630;28;20259;-67
2022/04/16 05:21:10;;;;;;;5.53;5.03;;;10.10;99.90;;;;;;5114388;28;20637;-67
2022/04/16 05:23:39;;;;;;;5.43;4.93;;;10.20;99.90;;;;;;5114312;28;20197;-67
2022/04/16 05:26:07;;;;;;;6.90;6.20;;;10.10;99.90;;;;;;5114285;28;20201;-67
2022/04/16 05:28:34;;;;;;;5.72;5.22;;;10.10;99.90;;;;;;5114260;28;20201;-68
2022/04/16 05:31:01;;;;;;;5.78;5.28;;;10.20;99.90;;;;;;5114215;28;20659;-67
2022/04/16 05:36:14;;;;;;;6.22;5.63;;;10.20;99.90;;;;;;5114171;28;20681;-67
2022/04/16 05:38:41;;;;;;;6.35;5.75;;;10.10;99.90;;;;;;5114234;28;20204;-67
2022/04/16 05:41:08;;;;;;;5.88;5.38;;;10.10;99.90;;;;;;5114070;28;20590;-67
2022/04/16 05:43:34;;;;;;;6.68;5.90;;;10.10;99.90;;;;;;5114080;28;20292;-67
2022/04/16 05:46:02;;;;;;;5.78;5.15;;;10.00;99.90;;;;;;5113559;28;20207;-67
2022/04/16 05:48:28;;;;;;;6.22;5.65;;;10.10;99.90;;;;;;5114093;28;20300;-67
2022/04/16 05:50:57;;;;;;;5.30;4.80;;;10.10;99.90;;;;;;5114060;28;20201;-67
2022/04/16 05:53:25;;;;;;;5.97;5.47;;;10.10;99.90;;;;;;5113920;28;20208;-67
2022/04/16 05:55:53;;;;;;;6.13;5.53;;;10.00;99.90;;;;;;5113974;28;20205;-67
2022/04/16 05:58:20;;;;;;;6.72;5.93;;;10.00;99.90;;;;;;5113914;28;20197;-67
2022/04/16 06:00:47;;;;;;;5.68;5.18;;;10.00;99.90;;;;;;5113816;28;20221;-68
2022/04/16 06:03:13;;;;;;;7.35;5.15;;;10.10;99.90;;;;;;5113978;28;20568;-67
2022/04/16 06:05:40;;;;;;;6.38;5.80;;;10.20;99.90;;;;;;5113976;28;20205;-67
2022/04/16 06:08:08;;;;;;;6.60;5.95;;;10.20;99.90;;;;;;5113971;28;20215;-67
2022/04/16 06:10:37;;;;;;;6.32;5.72;;;10.20;99.90;;;;;;5113807;28;20659;-67
2022/04/16 06:13:05;;;;;;;6.60;5.70;;;10.10;99.90;;;;;;5113360;28;20756;-68
2022/04/16 06:15:32;;;;;;;5.88;5.32;;;10.00;99.90;;;;;;5113578;28;20205;-67
2022/04/16 06:17:58;;;;;;;6.25;5.65;;;10.10;99.90;;;;;;5114151;28;20255;-67
2022/04/16 06:20:25;;;;;;;6.68;5.97;;;10.20;99.90;;;;;;5113684;28;20221;-67
2022/04/16 06:22:52;;;;;;;6.63;5.50;;;10.10;99.90;;;;;;5113832;28;20218;-67
2022/04/16 06:25:19;;;;;;;6.07;5.55;;;9.90;99.90;;;;;;5113566;28;20292;-67
2022/04/16 06:27:47;;;;;;;6.43;5.75;;;9.70;99.90;;;;;;5113734;28;20251;-67
2022/04/16 06:30:14;;;;;;;6.35;5.57;;;9.70;99.90;;;;;;5113587;28;20298;-67
2022/04/16 06:32:41;;;;;;;5.80;5.15;;;9.70;99.90;;;;;;5113749;28;20225;-67
2022/04/16 06:35:08;;;;;;;6.47;5.88;;;9.80;99.90;;;;;;5113424;28;20211;-67
2022/04/16 06:37:36;;;;;;;6.00;5.50;;;10.00;99.90;;;;;;5113690;28;20209;-67
2022/04/16 06:40:05;;;;;;;6.18;5.57;;;10.10;99.90;;;;;;5113678;28;20197;-67
2022/04/16 06:42:32;;;;;;;6.10;5.50;;;10.10;99.90;;;;;;5113339;28;20221;-67
2022/04/16 06:45:00;;;;;;;6.38;5.70;;;10.40;99.90;;;;;;5113467;28;20201;-67
2022/04/16 06:47:29;;;;;;;5.80;5.20;;;10.60;99.90;;;;;;5113486;28;20212;-68
2022/04/16 06:49:56;;;;;;;6.28;5.68;;;10.80;99.90;;;;;;5113595;28;20205;-68
2022/04/16 06:52:23;;;;;;;5.93;5.20;;;10.60;99.90;;;;;;5113278;28;20222;-68
2022/04/16 06:54:50;;;;;;;5.70;5.18;;;10.60;99.90;;;;;;5113399;28;20559;-68
2022/04/16 06:57:17;;;;;;;6.20;5.60;;;10.70;99.90;;;;;;5115205;28;20209;-68
2022/04/16 06:59:44;;;;;;;6.70;6.10;;;10.70;99.90;;;;;;5117068;28;20201;-67
2022/04/16 07:02:12;;;;;;;6.03;5.13;;;10.60;99.90;;;;;;5117174;28;20232;-67
2022/04/16 07:04:40;;;;;;;5.82;5.22;;;10.60;99.90;;;;;;5116984;28;20293;-67
2022/04/16 07:07:08;;;;;;;5.85;5.15;;;10.50;99.90;;;;;;5117096;28;20244;-67
2022/04/16 07:09:38;;;;;;;6.57;5.88;;;10.50;99.90;;;;;;5116955;27;20205;-68
2022/04/16 07:12:06;;;;;;;6.32;5.72;;;10.70;99.90;;;;;;5116696;28;20213;-67
2022/04/16 07:14:33;;;;;;;7.38;6.15;;;10.80;99.90;;;;;;5116805;28;20201;-67
2022/04/16 07:17:01;;;;;;;7.10;6.40;;;10.70;99.90;;;;;;5116884;28;20201;-67
2022/04/16 07:19:29;;;;;;;5.75;5.25;;;10.60;99.90;;;;;;5117177;28;20197;-68
2022/04/16 07:21:56;;;;;;;6.15;5.55;;;10.50;99.90;;;;;;5116793;28;20235;-68
2022/04/16 07:24:23;;;;;;;7.60;6.00;;;10.50;99.90;;;;;;5116714;28;20209;-68
2022/04/16 07:26:52;;;;;;;6.25;5.65;;;10.20;99.90;;;;;;5116912;28;20543;-68
2022/04/16 07:29:19;;;;;;;5.75;5.25;;;10.30;99.90;;;;;;5116716;28;20209;-68
2022/04/16 07:31:46;;;;;;;6.15;5.55;;;10.50;99.90;;;;;;5116844;28;20218;-68
2022/04/16 07:34:13;;;;;;;7.05;5.90;;;10.60;99.90;;;;;;5116487;28;20205;-68
2022/04/16 07:36:41;;;;;;;6.55;5.85;;;10.90;99.90;;;;;;5116436;28;20201;-68
2022/04/16 07:39:08;;;;;;;6.47;5.88;;;11.10;99.90;;;;;;5116447;28;20197;-68
2022/04/16 07:41:35;;;;;;;6.47;5.88;;;11.30;99.90;;;;;;5116020;27;20849;-68
2022/04/16 07:44:03;;;;;;;6.85;5.75;;;11.50;99.90;;;;;;5116293;28;20228;-68
2022/04/16 07:46:30;;;;;;;7.45;6.22;;;11.70;99.90;;;;;;5116444;28;20205;-68
2022/04/16 07:48:58;;;;;;;11.60;6.00;;;11.80;99.90;;;;;;5116224;28;20566;-67
2022/04/16 07:51:25;;;;;;;7.00;6.30;;;11.90;99.90;;;;;;5116121;28;20226;-68
2022/04/16 07:53:53;;;;;;;9.45;6.32;;;11.90;99.90;;;;;;5116070;28;20570;-68
2022/04/16 07:56:20;;;;;;;6.63;5.93;;;11.80;99.90;;;;;;5116177;28;20571;-67
2022/04/16 07:58:47;;;;;;;6.95;6.25;;;11.90;99.90;;;;;;5116175;27;20208;-68
2022/04/16 08:01:14;;;;;;;8.57;6.22;;;12.00;99.90;;;;;;5115861;28;20262;-68
2022/04/16 08:03:41;;;;;;;6.75;6.05;;;12.10;99.90;;;;;;5115891;28;20563;-68
2022/04/16 08:06:08;;;;;;;6.95;6.25;;;12.30;99.90;;;;;;5115985;28;20623;-68
2022/04/16 08:08:35;;;;;;;7.28;6.57;;;12.40;99.90;;;;;;5115426;28;20571;-67
2022/04/16 08:11:04;;;;;;;6.90;6.20;;;12.50;99.90;;;;;;5115762;28;20201;-67
2022/04/16 08:13:31;;;;;;;7.68;6.88;;;12.30;99.90;;;;;;5115514;28;20205;-67
2022/04/16 08:15:58;;;;;;;7.78;6.97;;;12.40;99.90;;;;;;5115817;28;20208;-69
2022/04/16 08:18:25;;;;;;;7.10;6.40;;;12.40;99.90;;;;;;5116082;28;20202;-69
2022/04/16 08:20:52;;;;;;;8.32;7.47;;;12.40;99.90;;;;;;5116789;28;20217;-68
2022/04/16 08:23:18;;;;;;;8.15;7.35;;;12.50;99.90;;;;;;5116473;28;20623;-69
2022/04/16 08:25:45;;;;;;;8.88;6.80;;;12.40;99.90;;;;;;5117059;28;20197;-68
2022/04/16 08:28:14;;;;;;;8.48;7.18;;;12.30;99.90;;;;;;5116972;28;20316;-69
2022/04/16 08:30:41;;;;;;;8.32;7.05;;;12.40;99.90;;;;;;5116689;28;20205;-69
2022/04/16 08:33:14;;;;;;;9.00;7.65;;;12.50;99.90;;;;;;5116483;28;20221;-67
2022/04/16 08:35:42;;;;;;;8.25;7.40;;;12.60;99.90;;;;;;5115150;28;20291;-68
2022/04/16 08:38:10;;;;;;;8.02;7.22;;;12.60;99.90;;;;;;5115302;28;20248;-68
2022/04/16 08:40:37;;;;;;;8.00;7.20;;;12.70;99.90;;;;;;5115303;28;20568;-68
2022/04/16 08:43:06;;;;;;;8.48;7.60;;;12.80;99.80;;;;;;5114907;28;20232;-68
2022/04/16 08:45:37;;;;;;;9.70;6.95;;;12.90;99.50;;;;;;5114875;28;20209;-67
2022/04/16 08:48:04;;;;;;;7.47;6.25;;;12.80;99.50;;;;;;5115494;27;20260;-68
2022/04/16 08:50:32;;;;;;;7.45;6.22;;;12.80;99.50;;;;;;5115100;28;20201;-67
2022/04/16 08:53:00;;;;;;;8.30;6.90;;;12.70;99.60;;;;;;5115171;28;20575;-68
2022/04/16 08:55:29;;;;;;;8.05;7.25;;;12.60;99.30;;;;;;5115061;28;20559;-68
2022/04/16 08:57:56;;;;;;;8.77;7.30;;;12.70;99.40;;;;;;5114861;28;20255;-67
2022/04/16 09:00:23;;;;;;;7.82;6.97;;;12.80;99.40;;;;;;5114896;28;20205;-68
2022/04/16 09:02:53;;;;;;;7.70;6.90;;;12.80;99.40;;;;;;5114810;28;20221;-67
2022/04/16 09:05:21;;;;;;;8.50;7.57;;;12.90;99.40;;;;;;5114660;28;20309;-68
2022/04/16 09:07:49;;;;;;;7.78;6.97;;;12.80;99.40;;;;;;5114817;28;20197;-68
2022/04/16 09:10:17;;;;;;;11.25;8.48;;;12.60;99.90;;;;;;5114600;28;20207;-68
2022/04/16 09:12:45;;;;;;;10.35;7.70;;;12.50;99.90;;;;;;5114405;28;20312;-68
2022/04/16 09:15:14;;;;;;;11.85;8.77;;;12.60;99.90;;;;;;5114766;28;20212;-68
2022/04/16 09:17:41;;;;;;;12.20;9.57;;;12.60;99.90;;;;;;5114456;28;20292;-68
2022/04/16 09:20:12;;;;;;;9.63;8.40;;;12.30;99.90;;;;;;5113825;28;20569;-68
2022/04/16 09:22:40;;;;;;;9.85;8.80;;;12.30;99.90;;;;;;5114184;28;20560;-68
2022/04/16 09:25:15;;;;;;;10.63;9.30;;;12.30;99.90;;;;;;5114297;28;20205;-68
2022/04/16 09:27:43;;;;;;;10.57;9.43;;;12.20;99.90;;;;;;5114451;28;20208;-68
2022/04/16 09:30:10;;;;;;;11.00;8.70;;;12.00;99.90;;;;;;5114591;28;20248;-68
2022/04/16 09:32:45;;;;;;;11.77;9.30;;;11.90;99.90;;;;;;5113994;28;20271;-67
2022/04/16 09:35:31;;;;;;;10.00;9.00;;;12.10;99.90;;;;;;5114071;28;20243;-68
2022/04/16 09:37:59;;;;;;;10.55;8.50;;;12.30;99.90;;;;;;5114231;28;20212;-68
2022/04/16 09:40:28;;;;;;;9.60;8.15;;;12.30;99.90;;;;;;5114243;28;20229;-68
2022/04/16 09:42:56;;;;;;;9.75;8.45;;;12.50;99.80;;;;;;5113843;28;20225;-68
2022/04/16 09:45:22;;;;;;;9.63;8.50;;;12.50;99.60;;;;;;5114167;28;20597;-68
2022/04/16 09:47:51;;;;;;;8.98;7.75;;;12.50;99.60;;;;;;5114037;28;20201;-67
2022/04/16 09:50:19;;;;;;;11.45;9.20;;;12.60;99.70;;;;;;5113915;28;20212;-67
2022/04/16 09:52:52;;;;;;;11.18;9.18;;;12.70;99.70;;;;;;5113824;28;20222;-68
2022/04/16 09:55:21;;;;;;;9.45;8.10;;;12.70;99.70;;;;;;5114004;28;20206;-68
2022/04/16 09:57:51;;;;;;;9.38;7.97;;;12.70;99.60;;;;;;5113966;28;20208;-67
2022/04/16 10:00:18;;;;;;;8.88;7.95;;;12.80;99.70;;;;;;5113972;28;20712;-68
2022/04/16 10:02:46;;;;;;;9.00;7.35;;;12.80;99.50;;;;;;5113946;28;20225;-68
2022/04/16 10:05:13;;;;;;;7.90;7.00;;;12.70;99.00;;;;;;5114134;28;20212;-68
2022/04/16 10:07:43;;;;;;;8.95;7.88;;;12.80;98.50;;;;;;5113833;28;20204;-68
2022/04/16 10:10:19;;;;;;;8.70;7.80;;;13.00;98.20;;;;;;5113990;28;20205;-68
2022/04/16 10:13:03;;;;;;;9.60;8.55;;;13.40;97.60;;;;;;5113638;28;20312;-68
2022/04/16 10:15:53;;;;;;;8.35;7.55;;;13.50;96.90;;;;;;5113922;28;20205;-68
2022/04/16 10:18:20;;;;;;;8.60;7.50;;;13.80;96.30;;;;;;5113911;28;20248;-68
2022/04/16 10:20:54;;;;;;;8.68;7.72;;;14.00;95.30;;;;;;5113766;28;20292;-68
2022/04/16 10:23:29;;;;;;;8.55;7.75;;;14.10;95.00;;;;;;5113289;28;20221;-68
2022/04/16 10:26:05;;;;;;;8.82;7.90;;;14.20;94.60;;;;;;5113794;28;20205;-67
2022/04/16 10:28:42;;;;;;;9.55;8.18;;;13.90;94.20;;;;;;5113693;28;20205;-68
2022/04/16 10:31:24;;;;;;;9.85;8.20;;;13.90;94.90;;;;;;5113571;28;20235;-68
2022/04/16 10:33:59;;;;;;;10.40;9.30;;;13.90;94.80;;;;;;5115489;28;20601;-68
2022/04/16 10:36:26;;;;;;;8.35;7.55;;;13.90;94.70;;;;;;5117504;28;20207;-68
2022/04/16 10:38:53;;;;;;;8.70;7.80;;;13.70;94.40;;;;;;5117727;28;20702;-68
2022/04/16 10:41:22;;;;;;;8.35;7.55;;;13.70;93.80;;;;;;5117300;27;20695;-67
2022/04/16 10:43:54;;;;;;;8.38;6.88;;;13.70;93.80;;;;;;5117466;28;20208;-68
2022/04/16 10:46:21;;;;;;;9.43;7.75;;;13.70;93.60;;;;;;5117629;28;20621;-68
2022/04/16 10:48:50;;;;;;;8.30;7.38;;;13.60;93.70;;;;;;5117261;28;20202;-68
2022/04/16 10:51:22;;;;;;;8.40;7.07;;;13.60;94.00;;;;;;5117330;28;20278;-68
2022/04/16 10:53:48;;;;;;;8.63;7.20;;;13.50;94.20;;;;;;5117461;27;20420;-68
2022/04/16 10:56:17;;;;;;;8.30;7.40;;;13.60;94.00;;;;;;5117230;28;20567;-68
2022/04/16 10:58:47;;;;;;;9.77;8.38;;;13.70;93.70;;;;;;5117239;28;20297;-68
2022/04/16 11:01:24;;;;;;;9.77;7.50;;;13.80;93.50;;;;;;5116892;27;20221;-67
2022/04/16 11:03:53;;;;;;;7.70;6.95;;;14.00;93.30;;;;;;5117064;28;20237;-68
2022/04/16 11:06:21;;;;;;;9.02;7.18;;;14.00;92.30;;;;;;5117141;28;20547;-68
2022/04/16 11:08:48;;;;;;;7.70;6.90;;;14.10;92.20;;;;;;5117097;28;20224;-68
2022/04/16 11:11:16;;;;;;;7.47;6.78;;;14.10;92.20;;;;;;5116936;28;20218;-68
2022/04/16 11:13:45;;;;;;;6.55;5.82;;;14.00;92.10;;;;;;5116929;28;20197;-68
2022/04/16 11:16:12;;;;;;;7.38;6.65;;;14.10;91.50;;;;;;5116744;28;20300;-68
2022/04/16 11:18:43;;;;;;;7.30;6.40;;;14.20;90.90;;;;;;5116969;28;20205;-68
2022/04/16 11:21:12;;;;;;;6.10;5.47;;;14.30;90.60;;;;;;5117069;28;20260;-68
2022/04/16 11:23:44;;;;;;;7.80;5.80;;;14.50;90.40;;;;;;5116575;28;20222;-68
2022/04/16 11:34:29;;;;;;;7.00;6.30;;;14.60;88.10;;;;;;5116636;28;20254;-68
2022/04/16 11:36:56;;;;;;;6.50;5.80;;;14.50;88.90;;;;;;5116900;28;20203;-68
2022/04/16 11:39:25;;;;;;;6.00;5.38;;;14.40;88.00;;;;;;5116352;28;20203;-68
2022/04/16 11:41:53;;;;;;;7.65;6.13;;;14.50;87.00;;;;;;5116076;28;20229;-68
2022/04/16 11:44:38;;;;;;;6.22;5.63;;;14.60;86.10;;;;;;5115303;28;20618;-67
2022/04/16 11:47:09;;;;;;;7.15;6.20;;;14.60;86.30;;;;;;5116342;28;20217;-68
2022/04/16 11:49:36;;;;;;;8.43;6.97;;;14.50;86.60;;;;;;5116321;28;20198;-68
2022/04/16 11:52:03;;;;;;;7.05;6.05;;;14.20;86.40;;;;;;5116041;28;20239;-68
2022/04/16 11:54:30;;;;;;;7.07;5.65;;;14.20;87.90;;;;;;5116088;28;20198;-68
2022/04/16 11:56:57;;;;;;;6.30;5.70;;;14.30;87.20;;;;;;5116068;28;20293;-68
2022/04/16 11:59:25;;;;;;;6.70;5.82;;;14.40;85.90;;;;;;5116078;28;20213;-68
2022/04/16 12:02:07;;;;;;;8.52;5.50;;;14.40;84.30;;;;;;5115981;28;20225;-68
2022/04/16 12:04:39;;;;;;;6.32;4.93;;;14.60;83.00;;;;;;5116182;28;20211;-68
2022/04/16 12:07:14;;;;;;;6.50;5.82;;;14.90;82.10;;;;;;5116156;28;20235;-68
2022/04/16 12:09:46;;;;;;;6.63;6.00;;;15.30;80.60;;;;;;5116031;28;20203;-68
2022/04/16 12:12:17;;;;;;;6.13;5.53;;;15.50;78.10;;;;;;5116204;28;20223;-68
2022/04/16 12:14:53;;;;;;;6.00;5.50;;;15.40;77.90;;;;;;5115826;28;20227;-68
2022/04/16 12:17:25;;;;;;;6.65;6.00;;;15.30;77.60;;;;;;5116022;28;20199;-68
2022/04/16 12:20:05;;;;;;;6.70;5.30;;;15.20;78.00;;;;;;5115674;28;20211;-68
2022/04/16 12:22:32;;;;;;;8.30;5.60;;;15.50;77.90;;;;;;5116052;27;20233;-68
2022/04/16 12:25:10;;;;;;;6.97;6.28;;;15.80;77.20;;;;;;5115465;27;20208;-68
2022/04/16 12:27:43;;;;;;;5.88;5.35;;;15.90;74.20;;;;;;5115479;28;20199;-68
2022/04/16 12:30:12;;;;;;;6.65;6.05;;;15.70;76.40;;;;;;5115209;28;20562;-69
2022/04/16 12:32:40;;;;;;;6.07;5.47;;;15.80;75.30;;;;;;5115477;28;20219;-68
2022/04/16 12:35:08;;;;;;;5.90;5.28;;;16.00;75.10;;;;;;5115247;28;20257;-68
2022/04/16 12:37:34;;;;;;;5.88;5.38;;;16.20;73.40;;;;;;5115440;27;20200;-68
2022/04/16 12:40:01;;;;;;;6.00;5.40;;;16.20;70.70;;;;;;5115370;28;20205;-68
2022/04/16 12:42:28;;;;;;;5.55;5.05;;;16.30;71.70;;;;;;5115075;28;20232;-68
2022/04/16 12:44:55;;;;;;;6.68;6.07;;;16.50;72.50;;;;;;5115074;28;20295;-68
2022/04/16 12:47:22;;;;;;;6.75;5.70;;;16.70;71.20;;;;;;5115209;28;20204;-68
2022/04/16 12:49:50;;;;;;;5.70;5.20;;;16.40;69.10;;;;;;5115154;28;20201;-68
2022/04/16 12:52:16;;;;;;;6.40;5.65;;;16.30;68.20;;;;;;5115047;28;20247;-68
2022/04/16 12:54:43;;;;;;;5.30;4.80;;;16.20;68.40;;;;;;5114785;28;20201;-68
2022/04/16 12:57:10;;;;;;;5.53;4.70;;;16.20;69.10;;;;;;5115001;28;20562;-68
2022/04/16 12:59:37;;;;;;;5.40;4.90;;;16.30;69.00;;;;;;5114656;28;20208;-68
2022/04/16 13:02:04;;;;;;;6.00;5.43;;;16.40;68.20;;;;;;5114813;28;20221;-68
2022/04/16 13:04:31;;;;;;;5.97;5.47;;;16.60;67.90;;;;;;5114948;28;20205;-68
2022/04/16 13:06:59;;;;;;;6.65;5.93;;;16.80;66.70;;;;;;5114793;28;20297;-68
2022/04/16 13:09:26;;;;;;;5.60;5.10;;;16.90;66.10;;;;;;5114708;28;20549;-68
2022/04/16 13:11:53;;;;;;;6.32;5.72;;;16.90;64.90;;;;;;5114541;28;20217;-69
2022/04/16 13:14:20;;;;;;;6.63;5.50;;;16.80;64.20;;;;;;5114521;28;20196;-68